sensor_id;sensor_type;location;lat;lon;timestamp;P1;durP1;ratioP1;P2;durP2;ratioP2
7402;SDS011;3742;48.770;11.440;2022-08-19T00:01:56;14.70;;;13.10;;
7402;SDS011;3742;48.770;11.440;2022-08-19T00:04:27;15.45;;;13.65;;
7402;SDS011;3742;48.770;11.440;2022-08-19T00:06:57;13.55;;;12.13;;
7402;SDS011;3742;48.770;11.440;2022-08-19T00:09:27;14.77;;;13.18;;
7402;SDS011;3742;48.770;11.440;2022-08-19T00:11:56;15.98;;;14.48;;
7402;SDS011;3742;48.770;11.440;2022-08-19T00:14:27;15.27;;;13.82;;
7402;SDS011;3742;48.770;11.440;2022-08-19T00:16:59;13.43;;;11.70;;
7402;SDS011;3742;48.770;11.440;2022-08-19T00:19:30;13.73;;;12.10;;
7402;SDS011;3742;48.770;11.440;2022-08-19T00:21:59;15.77;;;13.87;;
7402;SDS011;3742;48.770;11.440;2022-08-19T00:24:27;15.20;;;13.80;;
7402;SDS011;3742;48.770;11.440;2022-08-19T00:26:58;16.00;;;14.60;;
7402;SDS011;3742;48.770;11.440;2022-08-19T00:29:48;16.17;;;14.52;;
7402;SDS011;3742;48.770;11.440;2022-08-19T00:32:18;16.53;;;14.67;;
7402;SDS011;3742;48.770;11.440;2022-08-19T00:34:47;16.77;;;15.10;;
7402;SDS011;3742;48.770;11.440;2022-08-19T00:37:16;17.27;;;15.57;;
7402;SDS011;3742;48.770;11.440;2022-08-19T00:39:45;16.07;;;14.57;;
7402;SDS011;3742;48.770;11.440;2022-08-19T00:42:16;15.57;;;14.07;;
7402;SDS011;3742;48.770;11.440;2022-08-19T00:44:45;16.08;;;14.10;;
7402;SDS011;3742;48.770;11.440;2022-08-19T00:47:14;14.38;;;12.93;;
7402;SDS011;3742;48.770;11.440;2022-08-19T00:49:45;15.88;;;14.38;;
7402;SDS011;3742;48.770;11.440;2022-08-19T00:52:19;14.20;;;12.90;;
7402;SDS011;3742;48.770;11.440;2022-08-19T00:54:50;14.67;;;13.37;;
7402;SDS011;3742;48.770;11.440;2022-08-19T00:57:22;13.07;;;11.85;;
7402;SDS011;3742;48.770;11.440;2022-08-19T00:59:54;13.05;;;11.88;;
7402;SDS011;3742;48.770;11.440;2022-08-19T01:02:30;18.90;;;15.90;;
7402;SDS011;3742;48.770;11.440;2022-08-19T01:05:00;18.57;;;15.77;;
7402;SDS011;3742;48.770;11.440;2022-08-19T01:07:28;15.63;;;14.18;;
7402;SDS011;3742;48.770;11.440;2022-08-19T01:10:05;16.50;;;14.80;;
7402;SDS011;3742;48.770;11.440;2022-08-19T01:12:36;17.45;;;15.60;;
7402;SDS011;3742;48.770;11.440;2022-08-19T01:15:06;17.85;;;16.02;;
7402;SDS011;3742;48.770;11.440;2022-08-19T01:17:38;18.85;;;16.98;;
7402;SDS011;3742;48.770;11.440;2022-08-19T01:20:09;20.63;;;18.38;;
7402;SDS011;3742;48.770;11.440;2022-08-19T01:22:42;17.85;;;15.63;;
7402;SDS011;3742;48.770;11.440;2022-08-19T01:25:12;18.77;;;16.77;;
7402;SDS011;3742;48.770;11.440;2022-08-19T01:27:44;16.75;;;15.15;;
7402;SDS011;3742;48.770;11.440;2022-08-19T01:30:20;20.23;;;17.73;;
7402;SDS011;3742;48.770;11.440;2022-08-19T01:32:51;19.13;;;17.13;;
7402;SDS011;3742;48.770;11.440;2022-08-19T01:35:20;18.67;;;16.77;;
7402;SDS011;3742;48.770;11.440;2022-08-19T01:37:52;21.52;;;19.42;;
7402;SDS011;3742;48.770;11.440;2022-08-19T01:40:23;21.70;;;19.52;;
7402;SDS011;3742;48.770;11.440;2022-08-19T01:42:54;21.07;;;19.00;;
7402;SDS011;3742;48.770;11.440;2022-08-19T01:45:23;22.13;;;19.85;;
7402;SDS011;3742;48.770;11.440;2022-08-19T01:47:54;23.77;;;21.58;;
7402;SDS011;3742;48.770;11.440;2022-08-19T01:50:28;21.85;;;19.55;;
7402;SDS011;3742;48.770;11.440;2022-08-19T01:53:00;23.97;;;21.47;;
7402;SDS011;3742;48.770;11.440;2022-08-19T01:55:34;21.92;;;19.60;;
7402;SDS011;3742;48.770;11.440;2022-08-19T01:58:08;24.00;;;21.52;;
7402;SDS011;3742;48.770;11.440;2022-08-19T02:00:39;20.07;;;17.97;;
7402;SDS011;3742;48.770;11.440;2022-08-19T02:03:08;19.98;;;18.00;;
7402;SDS011;3742;48.770;11.440;2022-08-19T02:05:38;19.23;;;17.23;;
7402;SDS011;3742;48.770;11.440;2022-08-19T02:08:09;20.47;;;18.33;;
7402;SDS011;3742;48.770;11.440;2022-08-19T02:10:38;22.47;;;18.23;;
7402;SDS011;3742;48.770;11.440;2022-08-19T02:13:08;18.87;;;17.17;;
7402;SDS011;3742;48.770;11.440;2022-08-19T02:15:37;17.87;;;16.13;;
7402;SDS011;3742;48.770;11.440;2022-08-19T02:18:06;15.90;;;14.40;;
7402;SDS011;3742;48.770;11.440;2022-08-19T02:20:35;16.53;;;14.80;;
7402;SDS011;3742;48.770;11.440;2022-08-19T02:23:05;20.73;;;18.52;;
7402;SDS011;3742;48.770;11.440;2022-08-19T02:25:43;20.95;;;18.85;;
7402;SDS011;3742;48.770;11.440;2022-08-19T02:28:13;21.77;;;19.48;;
7402;SDS011;3742;48.770;11.440;2022-08-19T02:30:45;22.50;;;20.05;;
7402;SDS011;3742;48.770;11.440;2022-08-19T02:33:15;20.23;;;18.23;;
7402;SDS011;3742;48.770;11.440;2022-08-19T02:35:44;21.80;;;18.73;;
7402;SDS011;3742;48.770;11.440;2022-08-19T02:38:14;17.65;;;15.85;;
7402;SDS011;3742;48.770;11.440;2022-08-19T02:40:57;24.85;;;21.60;;
7402;SDS011;3742;48.770;11.440;2022-08-19T02:43:26;17.40;;;15.70;;
7402;SDS011;3742;48.770;11.440;2022-08-19T02:46:00;19.70;;;17.80;;
7402;SDS011;3742;48.770;11.440;2022-08-19T02:48:29;21.00;;;18.55;;
7402;SDS011;3742;48.770;11.440;2022-08-19T02:50:59;20.97;;;18.80;;
7402;SDS011;3742;48.770;11.440;2022-08-19T02:53:28;20.92;;;18.92;;
7402;SDS011;3742;48.770;11.440;2022-08-19T02:55:58;20.27;;;18.10;;
7402;SDS011;3742;48.770;11.440;2022-08-19T02:58:27;18.15;;;16.45;;
7402;SDS011;3742;48.770;11.440;2022-08-19T03:00:56;21.27;;;19.10;;
7402;SDS011;3742;48.770;11.440;2022-08-19T03:03:25;23.13;;;20.83;;
7402;SDS011;3742;48.770;11.440;2022-08-19T03:06:03;24.20;;;21.38;;
7402;SDS011;3742;48.770;11.440;2022-08-19T03:08:32;25.13;;;22.47;;
7402;SDS011;3742;48.770;11.440;2022-08-19T03:11:03;24.63;;;22.13;;
7402;SDS011;3742;48.770;11.440;2022-08-19T03:13:31;25.63;;;22.97;;
7402;SDS011;3742;48.770;11.440;2022-08-19T03:16:00;24.10;;;21.53;;
7402;SDS011;3742;48.770;11.440;2022-08-19T03:18:32;24.30;;;21.73;;
7402;SDS011;3742;48.770;11.440;2022-08-19T03:21:01;24.53;;;22.03;;
7402;SDS011;3742;48.770;11.440;2022-08-19T03:23:29;24.50;;;21.55;;
7402;SDS011;3742;48.770;11.440;2022-08-19T03:25:58;24.30;;;21.73;;
7402;SDS011;3742;48.770;11.440;2022-08-19T03:28:44;24.13;;;21.70;;
7402;SDS011;3742;48.770;11.440;2022-08-19T03:31:24;24.37;;;21.77;;
7402;SDS011;3742;48.770;11.440;2022-08-19T03:34:15;25.70;;;22.98;;
7402;SDS011;3742;48.770;11.440;2022-08-19T03:36:46;25.23;;;22.70;;
7402;SDS011;3742;48.770;11.440;2022-08-19T03:39:15;24.63;;;22.00;;
7402;SDS011;3742;48.770;11.440;2022-08-19T03:41:44;27.07;;;24.27;;
7402;SDS011;3742;48.770;11.440;2022-08-19T03:44:17;25.03;;;22.53;;
7402;SDS011;3742;48.770;11.440;2022-08-19T03:46:48;26.53;;;23.57;;
7402;SDS011;3742;48.770;11.440;2022-08-19T03:49:17;26.95;;;22.02;;
7402;SDS011;3742;48.770;11.440;2022-08-19T03:51:47;26.00;;;22.50;;
7402;SDS011;3742;48.770;11.440;2022-08-19T03:54:17;25.77;;;22.97;;
7402;SDS011;3742;48.770;11.440;2022-08-19T03:56:48;25.30;;;22.60;;
7402;SDS011;3742;48.770;11.440;2022-08-19T03:59:19;24.17;;;21.60;;
7402;SDS011;3742;48.770;11.440;2022-08-19T04:01:52;26.77;;;23.07;;
7402;SDS011;3742;48.770;11.440;2022-08-19T04:04:21;25.73;;;23.13;;
7402;SDS011;3742;48.770;11.440;2022-08-19T04:06:50;25.53;;;22.80;;
7402;SDS011;3742;48.770;11.440;2022-08-19T04:09:19;26.80;;;23.23;;
7402;SDS011;3742;48.770;11.440;2022-08-19T04:11:49;24.73;;;22.13;;
7402;SDS011;3742;48.770;11.440;2022-08-19T04:14:22;25.83;;;23.07;;
7402;SDS011;3742;48.770;11.440;2022-08-19T04:16:52;25.33;;;22.47;;
7402;SDS011;3742;48.770;11.440;2022-08-19T04:19:21;26.83;;;23.27;;
7402;SDS011;3742;48.770;11.440;2022-08-19T04:21:51;25.17;;;22.53;;
7402;SDS011;3742;48.770;11.440;2022-08-19T04:24:21;24.50;;;21.97;;
7402;SDS011;3742;48.770;11.440;2022-08-19T04:26:50;23.60;;;18.80;;
7402;SDS011;3742;48.770;11.440;2022-08-19T04:29:20;22.30;;;19.90;;
7402;SDS011;3742;48.770;11.440;2022-08-19T04:31:52;21.03;;;18.87;;
7402;SDS011;3742;48.770;11.440;2022-08-19T04:34:23;17.50;;;15.60;;
7402;SDS011;3742;48.770;11.440;2022-08-19T04:36:53;16.30;;;14.60;;
7402;SDS011;3742;48.770;11.440;2022-08-19T04:39:25;24.30;;;21.80;;
7402;SDS011;3742;48.770;11.440;2022-08-19T04:42:15;24.63;;;22.13;;
7402;SDS011;3742;48.770;11.440;2022-08-19T04:45:04;22.67;;;19.77;;
7402;SDS011;3742;48.770;11.440;2022-08-19T04:47:38;22.93;;;20.47;;
7402;SDS011;3742;48.770;11.440;2022-08-19T04:50:17;20.40;;;18.30;;
7402;SDS011;3742;48.770;11.440;2022-08-19T04:52:46;24.13;;;20.40;;
7402;SDS011;3742;48.770;11.440;2022-08-19T04:55:14;24.77;;;20.87;;
7402;SDS011;3742;48.770;11.440;2022-08-19T04:57:43;24.00;;;21.47;;
7402;SDS011;3742;48.770;11.440;2022-08-19T05:00:13;24.73;;;21.67;;
7402;SDS011;3742;48.770;11.440;2022-08-19T05:02:42;24.43;;;21.83;;
7402;SDS011;3742;48.770;11.440;2022-08-19T05:05:11;26.17;;;23.33;;
7402;SDS011;3742;48.770;11.440;2022-08-19T05:07:40;27.37;;;23.60;;
7402;SDS011;3742;48.770;11.440;2022-08-19T05:10:09;25.00;;;21.70;;
7402;SDS011;3742;48.770;11.440;2022-08-19T05:12:38;22.73;;;20.33;;
7402;SDS011;3742;48.770;11.440;2022-08-19T05:15:07;26.70;;;23.93;;
7402;SDS011;3742;48.770;11.440;2022-08-19T05:17:38;25.50;;;21.97;;
7402;SDS011;3742;48.770;11.440;2022-08-19T05:20:27;24.00;;;21.40;;
7402;SDS011;3742;48.770;11.440;2022-08-19T05:23:13;24.50;;;21.90;;
7402;SDS011;3742;48.770;11.440;2022-08-19T05:25:49;23.70;;;21.27;;
7402;SDS011;3742;48.770;11.440;2022-08-19T05:28:18;22.17;;;19.80;;
7402;SDS011;3742;48.770;11.440;2022-08-19T05:30:47;21.70;;;19.40;;
7402;SDS011;3742;48.770;11.440;2022-08-19T05:33:19;21.40;;;19.17;;
7402;SDS011;3742;48.770;11.440;2022-08-19T05:35:47;24.10;;;21.13;;
7402;SDS011;3742;48.770;11.440;2022-08-19T05:38:17;28.43;;;20.50;;
7402;SDS011;3742;48.770;11.440;2022-08-19T05:40:45;24.87;;;22.27;;
7402;SDS011;3742;48.770;11.440;2022-08-19T05:43:16;23.10;;;20.77;;
7402;SDS011;3742;48.770;11.440;2022-08-19T05:45:44;21.17;;;18.97;;
7402;SDS011;3742;48.770;11.440;2022-08-19T05:48:13;25.03;;;22.40;;
7402;SDS011;3742;48.770;11.440;2022-08-19T05:50:43;29.23;;;22.57;;
7402;SDS011;3742;48.770;11.440;2022-08-19T05:53:12;21.63;;;19.37;;
7402;SDS011;3742;48.770;11.440;2022-08-19T05:55:43;23.87;;;21.37;;
7402;SDS011;3742;48.770;11.440;2022-08-19T05:58:11;25.37;;;22.67;;
7402;SDS011;3742;48.770;11.440;2022-08-19T06:00:42;25.17;;;22.43;;
7402;SDS011;3742;48.770;11.440;2022-08-19T06:03:11;25.77;;;22.23;;
7402;SDS011;3742;48.770;11.440;2022-08-19T06:05:44;25.70;;;23.00;;
7402;SDS011;3742;48.770;11.440;2022-08-19T06:08:18;26.77;;;23.33;;
7402;SDS011;3742;48.770;11.440;2022-08-19T06:11:17;31.30;;;22.53;;
7402;SDS011;3742;48.770;11.440;2022-08-19T06:13:48;22.60;;;20.20;;
7402;SDS011;3742;48.770;11.440;2022-08-19T06:16:26;24.33;;;21.03;;
7402;SDS011;3742;48.770;11.440;2022-08-19T06:18:55;21.47;;;18.83;;
7402;SDS011;3742;48.770;11.440;2022-08-19T06:21:27;21.60;;;18.87;;
7402;SDS011;3742;48.770;11.440;2022-08-19T06:23:56;25.10;;;22.13;;
7402;SDS011;3742;48.770;11.440;2022-08-19T06:26:25;24.87;;;20.07;;
7402;SDS011;3742;48.770;11.440;2022-08-19T06:28:54;20.27;;;18.17;;
7402;SDS011;3742;48.770;11.440;2022-08-19T06:31:24;24.90;;;22.40;;
7402;SDS011;3742;48.770;11.440;2022-08-19T06:33:55;25.37;;;21.97;;
7402;SDS011;3742;48.770;11.440;2022-08-19T06:36:27;25.07;;;20.47;;
7402;SDS011;3742;48.770;11.440;2022-08-19T06:38:58;25.70;;;22.03;;
7402;SDS011;3742;48.770;11.440;2022-08-19T06:41:28;21.87;;;19.57;;
7402;SDS011;3742;48.770;11.440;2022-08-19T06:43:57;26.50;;;22.13;;
7402;SDS011;3742;48.770;11.440;2022-08-19T06:46:25;26.70;;;20.83;;
7402;SDS011;3742;48.770;11.440;2022-08-19T06:48:54;21.93;;;19.53;;
7402;SDS011;3742;48.770;11.440;2022-08-19T06:51:23;22.10;;;19.70;;
7402;SDS011;3742;48.770;11.440;2022-08-19T06:53:59;22.97;;;20.60;;
7402;SDS011;3742;48.770;11.440;2022-08-19T06:56:30;23.70;;;21.17;;
7402;SDS011;3742;48.770;11.440;2022-08-19T06:59:02;22.57;;;20.17;;
7402;SDS011;3742;48.770;11.440;2022-08-19T07:01:33;21.73;;;19.50;;
7402;SDS011;3742;48.770;11.440;2022-08-19T07:04:04;24.33;;;21.73;;
7402;SDS011;3742;48.770;11.440;2022-08-19T07:06:38;23.40;;;21.10;;
7402;SDS011;3742;48.770;11.440;2022-08-19T07:09:12;21.43;;;19.13;;
7402;SDS011;3742;48.770;11.440;2022-08-19T07:11:45;24.40;;;21.53;;
7402;SDS011;3742;48.770;11.440;2022-08-19T07:14:15;23.10;;;20.60;;
7402;SDS011;3742;48.770;11.440;2022-08-19T07:16:46;23.70;;;20.63;;
7402;SDS011;3742;48.770;11.440;2022-08-19T07:19:17;23.70;;;21.40;;
7402;SDS011;3742;48.770;11.440;2022-08-19T07:21:46;24.07;;;20.97;;
7402;SDS011;3742;48.770;11.440;2022-08-19T07:24:17;25.07;;;20.37;;
7402;SDS011;3742;48.770;11.440;2022-08-19T07:26:46;26.27;;;21.67;;
7402;SDS011;3742;48.770;11.440;2022-08-19T07:29:18;23.33;;;20.83;;
7402;SDS011;3742;48.770;11.440;2022-08-19T07:31:55;25.83;;;21.90;;
7402;SDS011;3742;48.770;11.440;2022-08-19T07:34:27;23.47;;;21.17;;
7402;SDS011;3742;48.770;11.440;2022-08-19T07:36:56;25.40;;;22.13;;
7402;SDS011;3742;48.770;11.440;2022-08-19T07:39:28;25.47;;;22.83;;
7402;SDS011;3742;48.770;11.440;2022-08-19T07:41:58;25.53;;;22.93;;
7402;SDS011;3742;48.770;11.440;2022-08-19T07:44:28;26.77;;;23.73;;
7402;SDS011;3742;48.770;11.440;2022-08-19T07:46:58;26.57;;;23.37;;
7402;SDS011;3742;48.770;11.440;2022-08-19T07:49:27;25.57;;;20.87;;
7402;SDS011;3742;48.770;11.440;2022-08-19T07:51:57;27.03;;;24.10;;
7402;SDS011;3742;48.770;11.440;2022-08-19T07:54:30;25.00;;;22.47;;
7402;SDS011;3742;48.770;11.440;2022-08-19T07:57:01;27.63;;;24.70;;
7402;SDS011;3742;48.770;11.440;2022-08-19T07:59:30;27.00;;;24.07;;
7402;SDS011;3742;48.770;11.440;2022-08-19T08:01:59;26.47;;;23.43;;
7402;SDS011;3742;48.770;11.440;2022-08-19T08:04:29;24.37;;;21.70;;
7402;SDS011;3742;48.770;11.440;2022-08-19T08:07:16;24.73;;;21.13;;
7402;SDS011;3742;48.770;11.440;2022-08-19T08:10:04;22.23;;;18.93;;
7402;SDS011;3742;48.770;11.440;2022-08-19T08:12:47;22.57;;;20.17;;
7402;SDS011;3742;48.770;11.440;2022-08-19T08:15:35;23.60;;;19.43;;
7402;SDS011;3742;48.770;11.440;2022-08-19T08:18:09;25.47;;;21.63;;
7402;SDS011;3742;48.770;11.440;2022-08-19T08:20:40;22.23;;;19.40;;
7402;SDS011;3742;48.770;11.440;2022-08-19T08:23:09;21.83;;;19.60;;
7402;SDS011;3742;48.770;11.440;2022-08-19T08:25:52;20.27;;;17.00;;
7402;SDS011;3742;48.770;11.440;2022-08-19T08:28:22;27.13;;;22.10;;
7402;SDS011;3742;48.770;11.440;2022-08-19T08:30:52;26.87;;;23.30;;
7402;SDS011;3742;48.770;11.440;2022-08-19T08:33:22;23.63;;;21.10;;
7402;SDS011;3742;48.770;11.440;2022-08-19T08:36:00;21.63;;;18.33;;
7402;SDS011;3742;48.770;11.440;2022-08-19T08:38:30;20.87;;;18.43;;
7402;SDS011;3742;48.770;11.440;2022-08-19T08:41:09;22.53;;;18.27;;
7402;SDS011;3742;48.770;11.440;2022-08-19T08:43:46;22.03;;;17.83;;
7402;SDS011;3742;48.770;11.440;2022-08-19T08:46:19;22.20;;;17.03;;
7402;SDS011;3742;48.770;11.440;2022-08-19T08:49:00;22.83;;;18.37;;
7402;SDS011;3742;48.770;11.440;2022-08-19T08:51:34;21.13;;;16.57;;
7402;SDS011;3742;48.770;11.440;2022-08-19T08:54:11;17.20;;;15.40;;
7402;SDS011;3742;48.770;11.440;2022-08-19T08:56:43;18.03;;;16.13;;
7402;SDS011;3742;48.770;11.440;2022-08-19T08:59:15;14.83;;;13.33;;
7402;SDS011;3742;48.770;11.440;2022-08-19T09:01:50;19.30;;;14.83;;
7402;SDS011;3742;48.770;11.440;2022-08-19T09:04:19;17.43;;;15.43;;
7402;SDS011;3742;48.770;11.440;2022-08-19T09:06:51;19.80;;;15.77;;
7402;SDS011;3742;48.770;11.440;2022-08-19T09:09:24;17.77;;;15.87;;
7402;SDS011;3742;48.770;11.440;2022-08-19T09:12:03;17.90;;;16.03;;
7402;SDS011;3742;48.770;11.440;2022-08-19T09:14:39;17.77;;;15.77;;
7402;SDS011;3742;48.770;11.440;2022-08-19T09:17:19;18.67;;;16.03;;
7402;SDS011;3742;48.770;11.440;2022-08-19T09:19:59;19.33;;;15.43;;
7402;SDS011;3742;48.770;11.440;2022-08-19T09:22:35;18.77;;;16.87;;
7402;SDS011;3742;48.770;11.440;2022-08-19T09:25:06;16.90;;;14.73;;
7402;SDS011;3742;48.770;11.440;2022-08-19T09:27:37;17.20;;;15.40;;
7402;SDS011;3742;48.770;11.440;2022-08-19T09:30:12;19.03;;;16.83;;
7402;SDS011;3742;48.770;11.440;2022-08-19T09:32:43;18.40;;;15.83;;
7402;SDS011;3742;48.770;11.440;2022-08-19T09:35:13;17.07;;;15.17;;
7402;SDS011;3742;48.770;11.440;2022-08-19T09:37:42;16.43;;;13.73;;
7402;SDS011;3742;48.770;11.440;2022-08-19T09:40:12;16.30;;;14.70;;
7402;SDS011;3742;48.770;11.440;2022-08-19T09:42:43;16.90;;;15.03;;
7402;SDS011;3742;48.770;11.440;2022-08-19T09:45:17;15.43;;;13.90;;
7402;SDS011;3742;48.770;11.440;2022-08-19T09:47:49;19.23;;;15.60;;
7402;SDS011;3742;48.770;11.440;2022-08-19T09:50:21;20.20;;;18.03;;
7402;SDS011;3742;48.770;11.440;2022-08-19T09:52:50;19.17;;;17.13;;
7402;SDS011;3742;48.770;11.440;2022-08-19T09:55:24;16.97;;;15.17;;
7402;SDS011;3742;48.770;11.440;2022-08-19T09:58:00;20.50;;;16.93;;
7402;SDS011;3742;48.770;11.440;2022-08-19T10:00:29;20.53;;;18.33;;
7402;SDS011;3742;48.770;11.440;2022-08-19T10:02:58;20.70;;;18.20;;
7402;SDS011;3742;48.770;11.440;2022-08-19T10:05:29;20.73;;;18.63;;
7402;SDS011;3742;48.770;11.440;2022-08-19T10:08:16;19.87;;;17.70;;
7402;SDS011;3742;48.770;11.440;2022-08-19T10:10:47;21.37;;;19.17;;
7402;SDS011;3742;48.770;11.440;2022-08-19T10:13:18;19.47;;;17.37;;
7402;SDS011;3742;48.770;11.440;2022-08-19T10:15:52;21.13;;;18.87;;
7402;SDS011;3742;48.770;11.440;2022-08-19T10:18:24;15.98;;;14.38;;
7402;SDS011;3742;48.770;11.440;2022-08-19T10:21:01;14.13;;;12.53;;
7402;SDS011;3742;48.770;11.440;2022-08-19T10:23:35;13.77;;;12.33;;
7402;SDS011;3742;48.770;11.440;2022-08-19T10:26:05;13.57;;;12.17;;
7402;SDS011;3742;48.770;11.440;2022-08-19T10:28:35;16.90;;;14.30;;
7402;SDS011;3742;48.770;11.440;2022-08-19T10:31:06;14.50;;;13.00;;
7402;SDS011;3742;48.770;11.440;2022-08-19T10:33:35;16.80;;;14.98;;
7402;SDS011;3742;48.770;11.440;2022-08-19T10:36:21;19.73;;;16.43;;
7402;SDS011;3742;48.770;11.440;2022-08-19T10:38:51;13.37;;;11.93;;
7402;SDS011;3742;48.770;11.440;2022-08-19T10:41:25;16.40;;;14.17;;
7402;SDS011;3742;48.770;11.440;2022-08-19T10:43:56;18.30;;;15.40;;
7402;SDS011;3742;48.770;11.440;2022-08-19T10:46:30;16.27;;;14.57;;
7402;SDS011;3742;48.770;11.440;2022-08-19T10:49:00;15.97;;;14.17;;
7402;SDS011;3742;48.770;11.440;2022-08-19T10:51:30;15.27;;;13.77;;
7402;SDS011;3742;48.770;11.440;2022-08-19T10:54:17;15.90;;;14.20;;
7402;SDS011;3742;48.770;11.440;2022-08-19T10:56:59;14.40;;;12.90;;
7402;SDS011;3742;48.770;11.440;2022-08-19T10:59:28;14.37;;;12.67;;
7402;SDS011;3742;48.770;11.440;2022-08-19T11:02:02;14.77;;;13.23;;
7402;SDS011;3742;48.770;11.440;2022-08-19T11:04:32;14.40;;;12.90;;
7402;SDS011;3742;48.770;11.440;2022-08-19T11:07:01;12.50;;;11.20;;
7402;SDS011;3742;48.770;11.440;2022-08-19T11:09:31;14.73;;;13.20;;
7402;SDS011;3742;48.770;11.440;2022-08-19T11:12:00;13.37;;;12.07;;
7402;SDS011;3742;48.770;11.440;2022-08-19T11:14:33;13.43;;;11.90;;
7402;SDS011;3742;48.770;11.440;2022-08-19T11:17:02;14.48;;;12.93;;
7402;SDS011;3742;48.770;11.440;2022-08-19T11:19:31;14.43;;;12.48;;
7402;SDS011;3742;48.770;11.440;2022-08-19T11:22:00;18.37;;;16.40;;
7402;SDS011;3742;48.770;11.440;2022-08-19T11:24:30;24.43;;;18.07;;
7402;SDS011;3742;48.770;11.440;2022-08-19T11:27:03;16.87;;;13.90;;
7402;SDS011;3742;48.770;11.440;2022-08-19T11:29:34;19.07;;;15.07;;
7402;SDS011;3742;48.770;11.440;2022-08-19T11:32:04;15.90;;;13.77;;
7402;SDS011;3742;48.770;11.440;2022-08-19T11:34:34;19.20;;;14.20;;
7402;SDS011;3742;48.770;11.440;2022-08-19T11:37:03;15.63;;;14.03;;
7402;SDS011;3742;48.770;11.440;2022-08-19T11:39:33;14.73;;;13.23;;
7402;SDS011;3742;48.770;11.440;2022-08-19T11:42:02;13.83;;;12.33;;
7402;SDS011;3742;48.770;11.440;2022-08-19T11:44:53;12.63;;;11.33;;
7402;SDS011;3742;48.770;11.440;2022-08-19T11:47:22;12.47;;;10.60;;
7402;SDS011;3742;48.770;11.440;2022-08-19T11:49:50;14.80;;;12.27;;
7402;SDS011;3742;48.770;11.440;2022-08-19T11:52:20;15.27;;;11.90;;
7402;SDS011;3742;48.770;11.440;2022-08-19T11:54:48;13.47;;;11.60;;
7402;SDS011;3742;48.770;11.440;2022-08-19T11:57:17;15.10;;;12.47;;
7402;SDS011;3742;48.770;11.440;2022-08-19T11:59:49;17.90;;;12.87;;
7402;SDS011;3742;48.770;11.440;2022-08-19T12:02:19;19.40;;;12.03;;
7402;SDS011;3742;48.770;11.440;2022-08-19T12:04:48;13.60;;;12.20;;
7402;SDS011;3742;48.770;11.440;2022-08-19T12:07:17;16.33;;;13.67;;
7402;SDS011;3742;48.770;11.440;2022-08-19T12:09:45;15.33;;;11.90;;
7402;SDS011;3742;48.770;11.440;2022-08-19T12:12:14;13.83;;;12.33;;
7402;SDS011;3742;48.770;11.440;2022-08-19T12:14:44;14.93;;;12.83;;
7402;SDS011;3742;48.770;11.440;2022-08-19T12:17:13;14.07;;;12.43;;
7402;SDS011;3742;48.770;11.440;2022-08-19T12:19:43;14.10;;;12.60;;
7402;SDS011;3742;48.770;11.440;2022-08-19T12:22:11;14.73;;;13.07;;
7402;SDS011;3742;48.770;11.440;2022-08-19T12:24:40;14.50;;;13.17;;
7402;SDS011;3742;48.770;11.440;2022-08-19T12:27:09;15.20;;;13.70;;
7402;SDS011;3742;48.770;11.440;2022-08-19T12:29:39;14.80;;;13.20;;
7402;SDS011;3742;48.770;11.440;2022-08-19T12:32:08;18.10;;;12.50;;
7402;SDS011;3742;48.770;11.440;2022-08-19T12:34:38;14.33;;;12.87;;
7402;SDS011;3742;48.770;11.440;2022-08-19T12:37:08;16.23;;;13.03;;
7402;SDS011;3742;48.770;11.440;2022-08-19T12:39:38;14.93;;;13.43;;
7402;SDS011;3742;48.770;11.440;2022-08-19T12:42:09;15.40;;;13.73;;
7402;SDS011;3742;48.770;11.440;2022-08-19T12:44:39;14.80;;;13.23;;
7402;SDS011;3742;48.770;11.440;2022-08-19T12:47:09;15.23;;;13.67;;
7402;SDS011;3742;48.770;11.440;2022-08-19T12:49:41;17.53;;;14.80;;
7402;SDS011;3742;48.770;11.440;2022-08-19T12:52:23;15.63;;;13.33;;
7402;SDS011;3742;48.770;11.440;2022-08-19T12:54:53;16.30;;;14.20;;
7402;SDS011;3742;48.770;11.440;2022-08-19T12:57:22;18.33;;;14.07;;
7402;SDS011;3742;48.770;11.440;2022-08-19T12:59:59;15.70;;;14.03;;
7402;SDS011;3742;48.770;11.440;2022-08-19T13:02:31;16.27;;;14.57;;
7402;SDS011;3742;48.770;11.440;2022-08-19T13:05:05;17.53;;;15.00;;
7402;SDS011;3742;48.770;11.440;2022-08-19T13:07:37;15.43;;;13.77;;
7402;SDS011;3742;48.770;11.440;2022-08-19T13:10:07;18.23;;;14.67;;
7402;SDS011;3742;48.770;11.440;2022-08-19T13:12:38;18.80;;;15.80;;
7402;SDS011;3742;48.770;11.440;2022-08-19T13:15:08;16.67;;;13.83;;
7402;SDS011;3742;48.770;11.440;2022-08-19T13:17:38;16.17;;;14.57;;
7402;SDS011;3742;48.770;11.440;2022-08-19T13:20:07;16.17;;;13.80;;
7402;SDS011;3742;48.770;11.440;2022-08-19T13:22:39;17.17;;;15.37;;
7402;SDS011;3742;48.770;11.440;2022-08-19T13:25:08;19.63;;;14.33;;
7402;SDS011;3742;48.770;11.440;2022-08-19T13:27:37;18.77;;;14.87;;
7402;SDS011;3742;48.770;11.440;2022-08-19T13:30:07;16.40;;;14.73;;
7402;SDS011;3742;48.770;11.440;2022-08-19T13:32:54;19.57;;;13.67;;
7402;SDS011;3742;48.770;11.440;2022-08-19T13:35:42;22.33;;;14.47;;
7402;SDS011;3742;48.770;11.440;2022-08-19T13:38:15;23.17;;;15.10;;
7402;SDS011;3742;48.770;11.440;2022-08-19T13:40:45;19.10;;;14.50;;
7402;SDS011;3742;48.770;11.440;2022-08-19T13:43:14;15.50;;;13.47;;
7402;SDS011;3742;48.770;11.440;2022-08-19T13:45:50;15.40;;;13.73;;
7402;SDS011;3742;48.770;11.440;2022-08-19T13:48:19;17.10;;;14.73;;
7402;SDS011;3742;48.770;11.440;2022-08-19T13:50:47;17.03;;;14.70;;
7402;SDS011;3742;48.770;11.440;2022-08-19T13:53:17;26.20;;;14.97;;
7402;SDS011;3742;48.770;11.440;2022-08-19T13:55:46;19.07;;;14.73;;
7402;SDS011;3742;48.770;11.440;2022-08-19T13:58:15;21.83;;;15.07;;
7402;SDS011;3742;48.770;11.440;2022-08-19T14:00:45;16.80;;;13.83;;
7402;SDS011;3742;48.770;11.440;2022-08-19T14:03:14;19.87;;;13.90;;
7402;SDS011;3742;48.770;11.440;2022-08-19T14:05:43;19.90;;;13.17;;
7402;SDS011;3742;48.770;11.440;2022-08-19T14:08:12;15.83;;;12.73;;
7402;SDS011;3742;48.770;11.440;2022-08-19T14:10:42;17.57;;;14.43;;
7402;SDS011;3742;48.770;11.440;2022-08-19T14:13:13;17.53;;;13.43;;
7402;SDS011;3742;48.770;11.440;2022-08-19T14:15:43;16.77;;;14.80;;
7402;SDS011;3742;48.770;11.440;2022-08-19T14:18:12;16.67;;;13.90;;
7402;SDS011;3742;48.770;11.440;2022-08-19T14:20:40;15.47;;;13.70;;
7402;SDS011;3742;48.770;11.440;2022-08-19T14:23:10;17.23;;;14.17;;
7402;SDS011;3742;48.770;11.440;2022-08-19T14:25:39;17.10;;;13.83;;
7402;SDS011;3742;48.770;11.440;2022-08-19T14:28:09;17.77;;;14.30;;
7402;SDS011;3742;48.770;11.440;2022-08-19T14:30:37;18.17;;;14.87;;
7402;SDS011;3742;48.770;11.440;2022-08-19T14:33:06;15.50;;;12.60;;
7402;SDS011;3742;48.770;11.440;2022-08-19T14:35:36;19.40;;;16.60;;
7402;SDS011;3742;48.770;11.440;2022-08-19T14:38:05;18.90;;;16.90;;
7402;SDS011;3742;48.770;11.440;2022-08-19T14:40:34;20.83;;;17.37;;
7402;SDS011;3742;48.770;11.440;2022-08-19T14:43:03;21.23;;;18.37;;
7402;SDS011;3742;48.770;11.440;2022-08-19T14:45:34;23.13;;;19.20;;
7402;SDS011;3742;48.770;11.440;2022-08-19T14:48:07;24.67;;;19.73;;
7402;SDS011;3742;48.770;11.440;2022-08-19T14:50:45;22.33;;;19.37;;
7402;SDS011;3742;48.770;11.440;2022-08-19T14:53:15;25.10;;;20.13;;
7402;SDS011;3742;48.770;11.440;2022-08-19T14:55:44;25.80;;;21.50;;
7402;SDS011;3742;48.770;11.440;2022-08-19T14:58:13;19.57;;;16.70;;
7402;SDS011;3742;48.770;11.440;2022-08-19T15:00:56;23.50;;;20.67;;